Terminal Aerodrome Forecast
Issued by NWS

Home | Current Version | Previous Version | Graphics & Text | Print | Product List | Glossary On
Versions: 1 2 3 4 5 6 7 8 9 10 11 12 13 14 15
000
FTUS45 KGGW 170500
TAFOLF
TAF
KOLF 170520Z 1706/1806 09009KT P6SM OVC028
     FM171500 10013KT P6SM BKN028
     FM171800 10013KT P6SM OVC050=

USA.gov is the U.S. government's official web portal to all federal, state and local government web resources and services.